Главная страница
METAR-TAF:

METAR-TAF

Аэропорты :

Вадсё, Норвегия

широта: 70-04N, долгота: 029-51E, высота над уровнем моря: 3 м

Текущие метеонаблюдения

Эта сводка был подготовлена 22 минут назад, в 20:50 UTC
Ветер 10 Узел от восточно-северо-восточный
Температура 5°C
Влажность 87%
Давление 1017 hPa
Видимость 10 км и более
Сплошная облачность на высоте 1000 фута

METAR: ENVD 132050Z 07010KT 9999 OVC010 05/03 Q1017

Время: 23:12 (21:12 UTC)

Прогноз

Эта сводка был подготовлена 2 часа и 51 минут назад, в 18:21 UTC
Прогноз действительный с 13-го 18 UTC до 13-го 23 UTC
Ветер 12 Узел от восточный
Видимость 10 км и более
Отдельные облака на высоте 800 фута
Рассеянная облачность на высоте 2000 фута
временами
С 13-го 18 UTC до 13-го 23 UTC
Рассеянная облачность на высоте 800 фута

TAF: ENVD 131821Z 1318/1323 10012KT 9999 SCT008 BKN020 TEMPO 1318/1323 BKN008

Метеонаблюдения и прогнозы для более 4000 аэропортов (сводки METAR и TAF).

Имеющиеся станции представлены на карте желтыми и красными точками.

Чтобы увидеть название станции, наведите на нее мышь.

Затем щелкните, чтобы увидеть метеонаблюдения и метеопрогнозы.

Управление картой: чтобы увеличить масштаб, щелкните зеленые кнопки с черным крестиком; чтобы уменьшить масштаб, щелкните зеленую кнопку с тире; для просмотра соседних карт щелкайте зеленые стрелки.


METAR-TAF: